sensor_id;sensor_type;location;lat;lon;timestamp;P1;durP1;ratioP1;P2;durP2;ratioP2
73107;SDS011;61559;50.476;15.588;2023-04-30T00:00:57;7.90;;;5.90;;
73107;SDS011;61559;50.476;15.588;2023-04-30T00:03:32;8.50;;;5.80;;
73107;SDS011;61559;50.476;15.588;2023-04-30T00:06:03;9.10;;;5.90;;
73107;SDS011;61559;50.476;15.588;2023-04-30T00:08:35;10.20;;;6.40;;
73107;SDS011;61559;50.476;15.588;2023-04-30T00:11:06;8.10;;;6.10;;
73107;SDS011;61559;50.476;15.588;2023-04-30T00:13:37;7.30;;;5.20;;
73107;SDS011;61559;50.476;15.588;2023-04-30T00:16:10;6.90;;;5.30;;
73107;SDS011;61559;50.476;15.588;2023-04-30T00:18:41;8.00;;;5.20;;
73107;SDS011;61559;50.476;15.588;2023-04-30T00:21:12;6.50;;;5.00;;
73107;SDS011;61559;50.476;15.588;2023-04-30T00:23:43;8.30;;;5.00;;
73107;SDS011;61559;50.476;15.588;2023-04-30T00:26:14;7.40;;;5.10;;
73107;SDS011;61559;50.476;15.588;2023-04-30T00:28:45;9.30;;;5.40;;
73107;SDS011;61559;50.476;15.588;2023-04-30T00:31:17;7.50;;;5.70;;
73107;SDS011;61559;50.476;15.588;2023-04-30T00:33:48;9.50;;;5.90;;
73107;SDS011;61559;50.476;15.588;2023-04-30T00:36:20;9.70;;;5.70;;
73107;SDS011;61559;50.476;15.588;2023-04-30T00:38:51;7.40;;;5.20;;
73107;SDS011;61559;50.476;15.588;2023-04-30T00:41:22;7.00;;;5.50;;
73107;SDS011;61559;50.476;15.588;2023-04-30T00:43:54;12.30;;;6.50;;
73107;SDS011;61559;50.476;15.588;2023-04-30T00:46:25;11.30;;;5.90;;
73107;SDS011;61559;50.476;15.588;2023-04-30T00:48:56;8.10;;;6.10;;
73107;SDS011;61559;50.476;15.588;2023-04-30T00:51:32;8.70;;;5.50;;
73107;SDS011;61559;50.476;15.588;2023-04-30T00:54:03;7.70;;;5.00;;
73107;SDS011;61559;50.476;15.588;2023-04-30T00:56:35;6.90;;;5.00;;
73107;SDS011;61559;50.476;15.588;2023-04-30T00:59:06;8.60;;;5.40;;
73107;SDS011;61559;50.476;15.588;2023-04-30T01:01:39;7.70;;;5.20;;
73107;SDS011;61559;50.476;15.588;2023-04-30T01:04:11;7.70;;;5.20;;
73107;SDS011;61559;50.476;15.588;2023-04-30T01:06:42;7.70;;;5.30;;
73107;SDS011;61559;50.476;15.588;2023-04-30T01:09:14;6.90;;;4.80;;
73107;SDS011;61559;50.476;15.588;2023-04-30T01:11:49;6.20;;;4.40;;
73107;SDS011;61559;50.476;15.588;2023-04-30T01:14:39;6.40;;;4.80;;
73107;SDS011;61559;50.476;15.588;2023-04-30T01:17:20;8.80;;;5.60;;
73107;SDS011;61559;50.476;15.588;2023-04-30T01:19:56;9.80;;;5.80;;
73107;SDS011;61559;50.476;15.588;2023-04-30T01:22:39;8.10;;;5.30;;
73107;SDS011;61559;50.476;15.588;2023-04-30T01:25:28;8.40;;;5.60;;
73107;SDS011;61559;50.476;15.588;2023-04-30T01:28:13;6.90;;;4.90;;
73107;SDS011;61559;50.476;15.588;2023-04-30T01:30:47;6.10;;;4.80;;
73107;SDS011;61559;50.476;15.588;2023-04-30T01:33:20;7.90;;;4.80;;
73107;SDS011;61559;50.476;15.588;2023-04-30T01:38:47;10.20;;;5.20;;
73107;SDS011;61559;50.476;15.588;2023-04-30T01:41:27;9.00;;;5.70;;
73107;SDS011;61559;50.476;15.588;2023-04-30T01:44:07;9.40;;;5.60;;
73107;SDS011;61559;50.476;15.588;2023-04-30T01:46:50;6.90;;;5.30;;
73107;SDS011;61559;50.476;15.588;2023-04-30T01:49:29;7.80;;;5.80;;
73107;SDS011;61559;50.476;15.588;2023-04-30T01:52:13;8.80;;;5.80;;
73107;SDS011;61559;50.476;15.588;2023-04-30T01:54:56;7.80;;;5.10;;
73107;SDS011;61559;50.476;15.588;2023-04-30T01:57:35;9.00;;;5.70;;
73107;SDS011;61559;50.476;15.588;2023-04-30T02:00:10;9.20;;;5.50;;
73107;SDS011;61559;50.476;15.588;2023-04-30T02:02:47;8.40;;;5.60;;
73107;SDS011;61559;50.476;15.588;2023-04-30T02:05:19;9.90;;;5.60;;
73107;SDS011;61559;50.476;15.588;2023-04-30T02:07:51;7.80;;;5.70;;
73107;SDS011;61559;50.476;15.588;2023-04-30T02:10:23;7.00;;;5.10;;
73107;SDS011;61559;50.476;15.588;2023-04-30T02:12:56;7.80;;;5.50;;
73107;SDS011;61559;50.476;15.588;2023-04-30T02:15:27;7.80;;;5.10;;
73107;SDS011;61559;50.476;15.588;2023-04-30T02:17:59;9.10;;;5.50;;
73107;SDS011;61559;50.476;15.588;2023-04-30T02:20:30;7.80;;;5.80;;
73107;SDS011;61559;50.476;15.588;2023-04-30T02:23:10;7.20;;;4.90;;
73107;SDS011;61559;50.476;15.588;2023-04-30T02:25:41;8.00;;;5.30;;
73107;SDS011;61559;50.476;15.588;2023-04-30T02:28:12;6.40;;;5.10;;
73107;SDS011;61559;50.476;15.588;2023-04-30T02:30:43;8.40;;;5.30;;
73107;SDS011;61559;50.476;15.588;2023-04-30T02:35:44;7.10;;;5.30;;
73107;SDS011;61559;50.476;15.588;2023-04-30T02:38:15;6.80;;;5.40;;
73107;SDS011;61559;50.476;15.588;2023-04-30T02:40:46;8.20;;;4.40;;
73107;SDS011;61559;50.476;15.588;2023-04-30T02:43:18;10.00;;;5.80;;
73107;SDS011;61559;50.476;15.588;2023-04-30T02:45:49;7.40;;;5.40;;
73107;SDS011;61559;50.476;15.588;2023-04-30T02:48:20;7.40;;;5.50;;
73107;SDS011;61559;50.476;15.588;2023-04-30T02:50:52;10.10;;;5.20;;
73107;SDS011;61559;50.476;15.588;2023-04-30T02:55:52;6.80;;;4.50;;
73107;SDS011;61559;50.476;15.588;2023-04-30T02:58:23;7.20;;;5.40;;
73107;SDS011;61559;50.476;15.588;2023-04-30T03:00:55;9.30;;;5.90;;
73107;SDS011;61559;50.476;15.588;2023-04-30T03:03:26;7.50;;;5.30;;
73107;SDS011;61559;50.476;15.588;2023-04-30T03:05:58;9.50;;;5.70;;
73107;SDS011;61559;50.476;15.588;2023-04-30T03:08:29;8.00;;;5.40;;
73107;SDS011;61559;50.476;15.588;2023-04-30T03:13:29;6.80;;;4.80;;
73107;SDS011;61559;50.476;15.588;2023-04-30T03:16:01;7.70;;;5.30;;
73107;SDS011;61559;50.476;15.588;2023-04-30T03:21:03;7.70;;;5.30;;
73107;SDS011;61559;50.476;15.588;2023-04-30T03:23:35;8.80;;;6.30;;
73107;SDS011;61559;50.476;15.588;2023-04-30T03:26:06;13.40;;;8.20;;
73107;SDS011;61559;50.476;15.588;2023-04-30T03:28:37;10.40;;;6.10;;
73107;SDS011;61559;50.476;15.588;2023-04-30T03:31:08;7.90;;;5.20;;
73107;SDS011;61559;50.476;15.588;2023-04-30T03:33:40;10.40;;;5.50;;
73107;SDS011;61559;50.476;15.588;2023-04-30T03:36:11;8.50;;;5.80;;
73107;SDS011;61559;50.476;15.588;2023-04-30T03:38:42;12.40;;;6.70;;
73107;SDS011;61559;50.476;15.588;2023-04-30T03:43:43;10.60;;;6.50;;
73107;SDS011;61559;50.476;15.588;2023-04-30T03:48:43;8.00;;;6.00;;
73107;SDS011;61559;50.476;15.588;2023-04-30T03:56:13;9.90;;;5.60;;
73107;SDS011;61559;50.476;15.588;2023-04-30T03:58:45;11.40;;;6.20;;
73107;SDS011;61559;50.476;15.588;2023-04-30T04:01:16;12.90;;;8.50;;
73107;SDS011;61559;50.476;15.588;2023-04-30T04:03:47;16.50;;;10.40;;
73107;SDS011;61559;50.476;15.588;2023-04-30T04:06:19;18.90;;;10.60;;
73107;SDS011;61559;50.476;15.588;2023-04-30T04:08:50;15.40;;;10.30;;
73107;SDS011;61559;50.476;15.588;2023-04-30T04:11:22;15.90;;;10.10;;
73107;SDS011;61559;50.476;15.588;2023-04-30T04:13:53;17.00;;;9.80;;
73107;SDS011;61559;50.476;15.588;2023-04-30T04:18:54;16.50;;;8.90;;
73107;SDS011;61559;50.476;15.588;2023-04-30T04:21:25;14.10;;;8.60;;
73107;SDS011;61559;50.476;15.588;2023-04-30T04:23:57;16.00;;;9.60;;
73107;SDS011;61559;50.476;15.588;2023-04-30T04:26:32;14.40;;;9.90;;
73107;SDS011;61559;50.476;15.588;2023-04-30T04:29:04;15.60;;;10.20;;
73107;SDS011;61559;50.476;15.588;2023-04-30T04:31:35;12.90;;;8.50;;
73107;SDS011;61559;50.476;15.588;2023-04-30T04:34:08;13.70;;;8.30;;
73107;SDS011;61559;50.476;15.588;2023-04-30T04:36:39;9.80;;;6.70;;
73107;SDS011;61559;50.476;15.588;2023-04-30T04:39:11;11.80;;;7.10;;
73107;SDS011;61559;50.476;15.588;2023-04-30T04:41:43;12.20;;;6.70;;
73107;SDS011;61559;50.476;15.588;2023-04-30T04:46:44;9.00;;;5.30;;
73107;SDS011;61559;50.476;15.588;2023-04-30T04:49:15;10.30;;;6.60;;
73107;SDS011;61559;50.476;15.588;2023-04-30T04:51:47;11.70;;;6.90;;
73107;SDS011;61559;50.476;15.588;2023-04-30T04:54:17;9.70;;;6.30;;
73107;SDS011;61559;50.476;15.588;2023-04-30T04:56:49;10.50;;;7.40;;
73107;SDS011;61559;50.476;15.588;2023-04-30T04:59:20;8.40;;;6.10;;
73107;SDS011;61559;50.476;15.588;2023-04-30T05:01:51;11.10;;;6.70;;
73107;SDS011;61559;50.476;15.588;2023-04-30T05:04:22;13.20;;;8.20;;
73107;SDS011;61559;50.476;15.588;2023-04-30T05:06:54;11.60;;;6.30;;
73107;SDS011;61559;50.476;15.588;2023-04-30T05:09:25;13.00;;;7.60;;
73107;SDS011;61559;50.476;15.588;2023-04-30T05:11:56;12.50;;;7.30;;
73107;SDS011;61559;50.476;15.588;2023-04-30T05:14:27;9.80;;;7.00;;
73107;SDS011;61559;50.476;15.588;2023-04-30T05:16:59;9.80;;;7.00;;
73107;SDS011;61559;50.476;15.588;2023-04-30T05:19:31;8.90;;;6.30;;
73107;SDS011;61559;50.476;15.588;2023-04-30T05:22:02;9.10;;;6.70;;
73107;SDS011;61559;50.476;15.588;2023-04-30T05:24:33;10.40;;;6.70;;
73107;SDS011;61559;50.476;15.588;2023-04-30T05:27:04;11.20;;;6.40;;
73107;SDS011;61559;50.476;15.588;2023-04-30T05:29:35;9.20;;;5.50;;
73107;SDS011;61559;50.476;15.588;2023-04-30T05:32:06;9.50;;;5.90;;
73107;SDS011;61559;50.476;15.588;2023-04-30T05:34:37;7.70;;;5.30;;
73107;SDS011;61559;50.476;15.588;2023-04-30T05:39:39;6.70;;;5.10;;
73107;SDS011;61559;50.476;15.588;2023-04-30T05:42:10;10.20;;;5.40;;
73107;SDS011;61559;50.476;15.588;2023-04-30T05:47:11;6.70;;;4.30;;
73107;SDS011;61559;50.476;15.588;2023-04-30T05:49:42;9.10;;;5.60;;
73107;SDS011;61559;50.476;15.588;2023-04-30T05:52:13;11.30;;;5.40;;
73107;SDS011;61559;50.476;15.588;2023-04-30T05:54:46;8.90;;;5.10;;
73107;SDS011;61559;50.476;15.588;2023-04-30T05:57:17;8.20;;;5.20;;
73107;SDS011;61559;50.476;15.588;2023-04-30T05:59:48;7.50;;;4.50;;
73107;SDS011;61559;50.476;15.588;2023-04-30T06:02:21;8.40;;;4.90;;
73107;SDS011;61559;50.476;15.588;2023-04-30T06:04:52;6.50;;;4.10;;
73107;SDS011;61559;50.476;15.588;2023-04-30T06:07:24;9.20;;;4.70;;
73107;SDS011;61559;50.476;15.588;2023-04-30T06:09:55;6.40;;;4.10;;
73107;SDS011;61559;50.476;15.588;2023-04-30T06:12:26;5.80;;;4.10;;
73107;SDS011;61559;50.476;15.588;2023-04-30T06:14:58;7.10;;;4.60;;
73107;SDS011;61559;50.476;15.588;2023-04-30T06:17:29;7.00;;;4.40;;
73107;SDS011;61559;50.476;15.588;2023-04-30T06:20:01;6.80;;;4.20;;
73107;SDS011;61559;50.476;15.588;2023-04-30T06:22:34;7.10;;;3.90;;
73107;SDS011;61559;50.476;15.588;2023-04-30T06:25:06;7.00;;;4.20;;
73107;SDS011;61559;50.476;15.588;2023-04-30T06:27:38;6.90;;;4.30;;
73107;SDS011;61559;50.476;15.588;2023-04-30T06:30:09;8.20;;;4.60;;
73107;SDS011;61559;50.476;15.588;2023-04-30T06:32:41;4.90;;;4.00;;
73107;SDS011;61559;50.476;15.588;2023-04-30T06:35:12;4.40;;;3.40;;
73107;SDS011;61559;50.476;15.588;2023-04-30T06:37:44;6.30;;;4.10;;
73107;SDS011;61559;50.476;15.588;2023-04-30T06:40:15;8.30;;;3.40;;
73107;SDS011;61559;50.476;15.588;2023-04-30T06:42:47;5.90;;;3.60;;
73107;SDS011;61559;50.476;15.588;2023-04-30T06:45:18;4.70;;;3.50;;
73107;SDS011;61559;50.476;15.588;2023-04-30T06:47:49;7.00;;;3.20;;
73107;SDS011;61559;50.476;15.588;2023-04-30T06:50:20;3.50;;;2.10;;
73107;SDS011;61559;50.476;15.588;2023-04-30T06:52:51;5.90;;;3.30;;
73107;SDS011;61559;50.476;15.588;2023-04-30T06:55:23;3.80;;;3.20;;
73107;SDS011;61559;50.476;15.588;2023-04-30T06:57:55;6.70;;;3.90;;
73107;SDS011;61559;50.476;15.588;2023-04-30T07:00:26;4.90;;;3.90;;
73107;SDS011;61559;50.476;15.588;2023-04-30T07:02:57;7.90;;;3.60;;
73107;SDS011;61559;50.476;15.588;2023-04-30T07:05:31;9.10;;;3.60;;
73107;SDS011;61559;50.476;15.588;2023-04-30T07:08:02;5.20;;;3.50;;
73107;SDS011;61559;50.476;15.588;2023-04-30T07:10:35;4.80;;;3.10;;
73107;SDS011;61559;50.476;15.588;2023-04-30T07:13:06;4.40;;;3.00;;
73107;SDS011;61559;50.476;15.588;2023-04-30T07:18:07;4.80;;;3.40;;
73107;SDS011;61559;50.476;15.588;2023-04-30T07:20:38;3.70;;;2.50;;
73107;SDS011;61559;50.476;15.588;2023-04-30T07:23:09;4.30;;;3.00;;
73107;SDS011;61559;50.476;15.588;2023-04-30T07:25:40;5.30;;;3.20;;
73107;SDS011;61559;50.476;15.588;2023-04-30T07:28:12;6.40;;;4.10;;
73107;SDS011;61559;50.476;15.588;2023-04-30T07:30:43;5.00;;;3.60;;
73107;SDS011;61559;50.476;15.588;2023-04-30T07:33:14;5.90;;;3.80;;
73107;SDS011;61559;50.476;15.588;2023-04-30T07:35:45;5.90;;;3.40;;
73107;SDS011;61559;50.476;15.588;2023-04-30T07:38:16;6.80;;;3.80;;
73107;SDS011;61559;50.476;15.588;2023-04-30T07:40:48;4.90;;;3.30;;
73107;SDS011;61559;50.476;15.588;2023-04-30T07:43:19;5.30;;;3.00;;
73107;SDS011;61559;50.476;15.588;2023-04-30T07:45:51;4.10;;;3.40;;
73107;SDS011;61559;50.476;15.588;2023-04-30T07:48:22;6.80;;;3.60;;
73107;SDS011;61559;50.476;15.588;2023-04-30T07:50:53;4.60;;;3.20;;
73107;SDS011;61559;50.476;15.588;2023-04-30T07:53:24;5.60;;;3.80;;
73107;SDS011;61559;50.476;15.588;2023-04-30T07:55:55;5.60;;;3.20;;
73107;SDS011;61559;50.476;15.588;2023-04-30T07:58:26;5.80;;;3.00;;
73107;SDS011;61559;50.476;15.588;2023-04-30T08:00:57;7.00;;;3.40;;
73107;SDS011;61559;50.476;15.588;2023-04-30T08:03:28;6.10;;;3.30;;
73107;SDS011;61559;50.476;15.588;2023-04-30T08:06:00;6.30;;;3.50;;
73107;SDS011;61559;50.476;15.588;2023-04-30T08:08:31;4.90;;;3.20;;
73107;SDS011;61559;50.476;15.588;2023-04-30T08:11:02;3.90;;;2.90;;
73107;SDS011;61559;50.476;15.588;2023-04-30T08:13:33;5.30;;;2.90;;
73107;SDS011;61559;50.476;15.588;2023-04-30T08:16:05;4.90;;;3.10;;
73107;SDS011;61559;50.476;15.588;2023-04-30T08:18:36;5.70;;;3.20;;
73107;SDS011;61559;50.476;15.588;2023-04-30T08:21:11;5.40;;;3.50;;
73107;SDS011;61559;50.476;15.588;2023-04-30T08:23:43;4.40;;;3.40;;
73107;SDS011;61559;50.476;15.588;2023-04-30T08:26:14;5.00;;;3.00;;
73107;SDS011;61559;50.476;15.588;2023-04-30T08:28:45;6.20;;;3.20;;
73107;SDS011;61559;50.476;15.588;2023-04-30T08:31:16;3.80;;;2.00;;
73107;SDS011;61559;50.476;15.588;2023-04-30T08:33:47;3.50;;;3.00;;
73107;SDS011;61559;50.476;15.588;2023-04-30T08:36:19;3.60;;;2.90;;
73107;SDS011;61559;50.476;15.588;2023-04-30T08:38:50;4.20;;;3.00;;
73107;SDS011;61559;50.476;15.588;2023-04-30T08:41:21;5.10;;;2.90;;
73107;SDS011;61559;50.476;15.588;2023-04-30T08:43:59;4.60;;;3.00;;
73107;SDS011;61559;50.476;15.588;2023-04-30T08:46:33;5.50;;;2.90;;
73107;SDS011;61559;50.476;15.588;2023-04-30T08:49:07;5.30;;;2.70;;
73107;SDS011;61559;50.476;15.588;2023-04-30T08:51:38;4.00;;;2.80;;
73107;SDS011;61559;50.476;15.588;2023-04-30T08:54:10;5.20;;;2.80;;
73107;SDS011;61559;50.476;15.588;2023-04-30T08:56:43;3.40;;;2.60;;
73107;SDS011;61559;50.476;15.588;2023-04-30T08:59:14;4.20;;;2.70;;
73107;SDS011;61559;50.476;15.588;2023-04-30T09:01:45;5.50;;;2.60;;
73107;SDS011;61559;50.476;15.588;2023-04-30T09:04:20;3.50;;;2.70;;
73107;SDS011;61559;50.476;15.588;2023-04-30T09:06:52;4.10;;;2.50;;
73107;SDS011;61559;50.476;15.588;2023-04-30T09:09:28;3.90;;;2.60;;
73107;SDS011;61559;50.476;15.588;2023-04-30T09:12:12;4.90;;;2.40;;
73107;SDS011;61559;50.476;15.588;2023-04-30T09:15:00;5.40;;;3.10;;
73107;SDS011;61559;50.476;15.588;2023-04-30T09:17:32;4.20;;;2.80;;
73107;SDS011;61559;50.476;15.588;2023-04-30T09:20:07;3.30;;;2.60;;
73107;SDS011;61559;50.476;15.588;2023-04-30T09:25:10;4.60;;;3.10;;
73107;SDS011;61559;50.476;15.588;2023-04-30T09:27:41;6.20;;;3.20;;
73107;SDS011;61559;50.476;15.588;2023-04-30T09:30:17;4.70;;;3.00;;
73107;SDS011;61559;50.476;15.588;2023-04-30T09:33:00;3.80;;;2.60;;
73107;SDS011;61559;50.476;15.588;2023-04-30T09:35:32;5.10;;;3.10;;
73107;SDS011;61559;50.476;15.588;2023-04-30T09:38:05;5.80;;;2.60;;
73107;SDS011;61559;50.476;15.588;2023-04-30T09:40:53;4.80;;;2.70;;
73107;SDS011;61559;50.476;15.588;2023-04-30T09:43:26;4.30;;;2.90;;
73107;SDS011;61559;50.476;15.588;2023-04-30T09:45:58;4.50;;;2.90;;
73107;SDS011;61559;50.476;15.588;2023-04-30T09:48:30;4.20;;;2.70;;
73107;SDS011;61559;50.476;15.588;2023-04-30T09:51:04;5.60;;;2.70;;
73107;SDS011;61559;50.476;15.588;2023-04-30T09:53:36;5.30;;;2.80;;
73107;SDS011;61559;50.476;15.588;2023-04-30T09:56:10;3.60;;;1.70;;
73107;SDS011;61559;50.476;15.588;2023-04-30T09:58:44;7.10;;;2.70;;
73107;SDS011;61559;50.476;15.588;2023-04-30T10:01:22;4.30;;;2.70;;
73107;SDS011;61559;50.476;15.588;2023-04-30T10:03:56;3.00;;;2.30;;
73107;SDS011;61559;50.476;15.588;2023-04-30T10:06:27;4.10;;;2.50;;
73107;SDS011;61559;50.476;15.588;2023-04-30T10:09:03;2.50;;;2.10;;
73107;SDS011;61559;50.476;15.588;2023-04-30T10:11:38;6.70;;;2.90;;
73107;SDS011;61559;50.476;15.588;2023-04-30T10:14:12;4.90;;;2.70;;
73107;SDS011;61559;50.476;15.588;2023-04-30T10:16:48;7.40;;;2.60;;
73107;SDS011;61559;50.476;15.588;2023-04-30T10:19:25;5.40;;;2.60;;
73107;SDS011;61559;50.476;15.588;2023-04-30T10:22:05;5.00;;;2.90;;
73107;SDS011;61559;50.476;15.588;2023-04-30T10:24:53;4.00;;;2.40;;
73107;SDS011;61559;50.476;15.588;2023-04-30T10:27:25;5.60;;;2.60;;
73107;SDS011;61559;50.476;15.588;2023-04-30T10:29:58;3.20;;;2.00;;
73107;SDS011;61559;50.476;15.588;2023-04-30T10:32:31;4.50;;;2.10;;
73107;SDS011;61559;50.476;15.588;2023-04-30T10:35:09;5.60;;;2.80;;
73107;SDS011;61559;50.476;15.588;2023-04-30T10:37:50;3.80;;;2.50;;
73107;SDS011;61559;50.476;15.588;2023-04-30T10:40:26;3.10;;;2.40;;
73107;SDS011;61559;50.476;15.588;2023-04-30T10:43:05;4.30;;;2.30;;
73107;SDS011;61559;50.476;15.588;2023-04-30T10:45:42;4.80;;;2.50;;
73107;SDS011;61559;50.476;15.588;2023-04-30T10:48:15;4.50;;;2.10;;
73107;SDS011;61559;50.476;15.588;2023-04-30T10:50:55;4.40;;;2.60;;
73107;SDS011;61559;50.476;15.588;2023-04-30T10:53:28;4.90;;;2.20;;
73107;SDS011;61559;50.476;15.588;2023-04-30T10:56:01;5.80;;;2.30;;
73107;SDS011;61559;50.476;15.588;2023-04-30T10:58:36;5.40;;;2.40;;
73107;SDS011;61559;50.476;15.588;2023-04-30T11:01:10;5.00;;;2.40;;
73107;SDS011;61559;50.476;15.588;2023-04-30T11:03:44;3.70;;;2.50;;
73107;SDS011;61559;50.476;15.588;2023-04-30T11:06:53;3.50;;;2.20;;
73107;SDS011;61559;50.476;15.588;2023-04-30T11:09:37;4.30;;;2.30;;
73107;SDS011;61559;50.476;15.588;2023-04-30T11:12:11;3.80;;;2.50;;
73107;SDS011;61559;50.476;15.588;2023-04-30T11:14:43;5.00;;;2.20;;
73107;SDS011;61559;50.476;15.588;2023-04-30T11:17:21;3.40;;;2.30;;
73107;SDS011;61559;50.476;15.588;2023-04-30T11:19:57;4.00;;;2.10;;
73107;SDS011;61559;50.476;15.588;2023-04-30T11:22:29;4.20;;;2.10;;
73107;SDS011;61559;50.476;15.588;2023-04-30T11:25:04;4.00;;;2.30;;
73107;SDS011;61559;50.476;15.588;2023-04-30T11:27:37;3.90;;;2.30;;
73107;SDS011;61559;50.476;15.588;2023-04-30T11:30:12;4.10;;;2.30;;
73107;SDS011;61559;50.476;15.588;2023-04-30T11:32:45;4.40;;;1.90;;
73107;SDS011;61559;50.476;15.588;2023-04-30T11:35:17;3.50;;;2.10;;
73107;SDS011;61559;50.476;15.588;2023-04-30T11:37:48;3.30;;;2.00;;
73107;SDS011;61559;50.476;15.588;2023-04-30T11:40:23;3.10;;;2.10;;
73107;SDS011;61559;50.476;15.588;2023-04-30T11:42:55;3.90;;;2.30;;
73107;SDS011;61559;50.476;15.588;2023-04-30T11:45:26;4.50;;;2.30;;
73107;SDS011;61559;50.476;15.588;2023-04-30T11:47:57;2.90;;;1.90;;
73107;SDS011;61559;50.476;15.588;2023-04-30T11:50:32;2.70;;;2.00;;
73107;SDS011;61559;50.476;15.588;2023-04-30T11:53:10;3.80;;;1.90;;
73107;SDS011;61559;50.476;15.588;2023-04-30T11:55:41;3.60;;;2.10;;
73107;SDS011;61559;50.476;15.588;2023-04-30T11:58:12;5.10;;;2.30;;
73107;SDS011;61559;50.476;15.588;2023-04-30T12:00:43;2.40;;;1.90;;
73107;SDS011;61559;50.476;15.588;2023-04-30T12:03:15;6.10;;;2.20;;
73107;SDS011;61559;50.476;15.588;2023-04-30T12:05:46;5.20;;;2.20;;
73107;SDS011;61559;50.476;15.588;2023-04-30T12:08:17;4.90;;;2.10;;
73107;SDS011;61559;50.476;15.588;2023-04-30T12:10:49;3.40;;;1.90;;
73107;SDS011;61559;50.476;15.588;2023-04-30T12:13:20;2.10;;;1.80;;
73107;SDS011;61559;50.476;15.588;2023-04-30T12:15:57;4.60;;;2.10;;
73107;SDS011;61559;50.476;15.588;2023-04-30T12:18:30;2.10;;;1.70;;
73107;SDS011;61559;50.476;15.588;2023-04-30T12:21:02;3.60;;;2.10;;
73107;SDS011;61559;50.476;15.588;2023-04-30T12:23:34;2.90;;;1.70;;
73107;SDS011;61559;50.476;15.588;2023-04-30T12:26:06;4.20;;;2.00;;
73107;SDS011;61559;50.476;15.588;2023-04-30T12:28:37;3.50;;;2.00;;
73107;SDS011;61559;50.476;15.588;2023-04-30T12:31:08;3.60;;;1.90;;
73107;SDS011;61559;50.476;15.588;2023-04-30T12:33:39;3.60;;;2.10;;
73107;SDS011;61559;50.476;15.588;2023-04-30T12:36:10;4.20;;;1.90;;
73107;SDS011;61559;50.476;15.588;2023-04-30T12:38:43;3.60;;;1.80;;
73107;SDS011;61559;50.476;15.588;2023-04-30T12:41:15;2.00;;;1.70;;
73107;SDS011;61559;50.476;15.588;2023-04-30T12:43:48;2.10;;;1.70;;
73107;SDS011;61559;50.476;15.588;2023-04-30T12:46:25;3.40;;;1.90;;
73107;SDS011;61559;50.476;15.588;2023-04-30T12:48:57;3.10;;;2.10;;
73107;SDS011;61559;50.476;15.588;2023-04-30T12:51:28;3.00;;;1.60;;
73107;SDS011;61559;50.476;15.588;2023-04-30T12:54:01;2.10;;;1.90;;
73107;SDS011;61559;50.476;15.588;2023-04-30T12:56:32;4.20;;;1.70;;
73107;SDS011;61559;50.476;15.588;2023-04-30T12:59:13;3.60;;;1.80;;
73107;SDS011;61559;50.476;15.588;2023-04-30T13:01:45;2.40;;;1.80;;
73107;SDS011;61559;50.476;15.588;2023-04-30T13:04:16;3.10;;;1.70;;
73107;SDS011;61559;50.476;15.588;2023-04-30T13:06:47;3.40;;;1.80;;
73107;SDS011;61559;50.476;15.588;2023-04-30T13:09:19;3.90;;;1.80;;
73107;SDS011;61559;50.476;15.588;2023-04-30T13:11:50;3.70;;;1.80;;
73107;SDS011;61559;50.476;15.588;2023-04-30T13:14:22;2.70;;;1.50;;
73107;SDS011;61559;50.476;15.588;2023-04-30T13:16:54;2.50;;;1.70;;
73107;SDS011;61559;50.476;15.588;2023-04-30T13:19:25;5.80;;;1.60;;
73107;SDS011;61559;50.476;15.588;2023-04-30T13:21:57;2.90;;;1.90;;
73107;SDS011;61559;50.476;15.588;2023-04-30T13:24:29;3.00;;;1.50;;
73107;SDS011;61559;50.476;15.588;2023-04-30T13:27:00;3.10;;;1.60;;
73107;SDS011;61559;50.476;15.588;2023-04-30T13:29:31;3.10;;;1.50;;
73107;SDS011;61559;50.476;15.588;2023-04-30T13:32:02;2.80;;;1.50;;
73107;SDS011;61559;50.476;15.588;2023-04-30T13:34:33;3.70;;;1.70;;
73107;SDS011;61559;50.476;15.588;2023-04-30T13:37:05;4.40;;;1.70;;
73107;SDS011;61559;50.476;15.588;2023-04-30T13:39:36;1.70;;;1.40;;
73107;SDS011;61559;50.476;15.588;2023-04-30T13:42:07;4.70;;;2.10;;
73107;SDS011;61559;50.476;15.588;2023-04-30T13:44:38;2.90;;;1.80;;
73107;SDS011;61559;50.476;15.588;2023-04-30T13:47:09;2.70;;;1.70;;
73107;SDS011;61559;50.476;15.588;2023-04-30T13:49:40;3.30;;;1.70;;
73107;SDS011;61559;50.476;15.588;2023-04-30T13:52:11;2.20;;;1.60;;
73107;SDS011;61559;50.476;15.588;2023-04-30T13:54:42;3.10;;;1.50;;
73107;SDS011;61559;50.476;15.588;2023-04-30T13:57:14;3.10;;;1.70;;
73107;SDS011;61559;50.476;15.588;2023-04-30T13:59:45;4.50;;;1.90;;
73107;SDS011;61559;50.476;15.588;2023-04-30T14:02:16;3.20;;;1.60;;
73107;SDS011;61559;50.476;15.588;2023-04-30T14:04:47;4.10;;;1.90;;
73107;SDS011;61559;50.476;15.588;2023-04-30T14:07:33;3.90;;;1.70;;
73107;SDS011;61559;50.476;15.588;2023-04-30T14:10:06;3.20;;;1.90;;
73107;SDS011;61559;50.476;15.588;2023-04-30T14:12:37;1.90;;;1.50;;
73107;SDS011;61559;50.476;15.588;2023-04-30T14:15:09;3.70;;;1.90;;
73107;SDS011;61559;50.476;15.588;2023-04-30T14:17:40;3.60;;;1.70;;
73107;SDS011;61559;50.476;15.588;2023-04-30T14:20:12;4.00;;;1.90;;
73107;SDS011;61559;50.476;15.588;2023-04-30T14:22:43;3.40;;;1.60;;
73107;SDS011;61559;50.476;15.588;2023-04-30T14:25:14;3.30;;;1.90;;
73107;SDS011;61559;50.476;15.588;2023-04-30T14:27:45;3.00;;;1.90;;
73107;SDS011;61559;50.476;15.588;2023-04-30T14:30:17;3.50;;;2.10;;
73107;SDS011;61559;50.476;15.588;2023-04-30T14:32:48;2.20;;;1.70;;
73107;SDS011;61559;50.476;15.588;2023-04-30T14:35:19;2.70;;;1.70;;
73107;SDS011;61559;50.476;15.588;2023-04-30T14:37:50;2.80;;;1.60;;
73107;SDS011;61559;50.476;15.588;2023-04-30T14:40:21;5.10;;;2.10;;
73107;SDS011;61559;50.476;15.588;2023-04-30T14:42:53;4.10;;;2.00;;
73107;SDS011;61559;50.476;15.588;2023-04-30T14:45:24;4.00;;;2.00;;
73107;SDS011;61559;50.476;15.588;2023-04-30T14:47:56;4.90;;;2.00;;
73107;SDS011;61559;50.476;15.588;2023-04-30T14:50:27;3.40;;;1.90;;
73107;SDS011;61559;50.476;15.588;2023-04-30T14:52:58;1.90;;;1.60;;
73107;SDS011;61559;50.476;15.588;2023-04-30T14:55:29;3.40;;;1.90;;
73107;SDS011;61559;50.476;15.588;2023-04-30T14:58:01;3.60;;;2.20;;
73107;SDS011;61559;50.476;15.588;2023-04-30T15:00:32;3.70;;;2.20;;
73107;SDS011;61559;50.476;15.588;2023-04-30T15:03:03;2.80;;;1.90;;
73107;SDS011;61559;50.476;15.588;2023-04-30T15:05:35;4.40;;;2.10;;
73107;SDS011;61559;50.476;15.588;2023-04-30T15:08:06;5.30;;;2.00;;
73107;SDS011;61559;50.476;15.588;2023-04-30T15:10:37;2.80;;;1.90;;
73107;SDS011;61559;50.476;15.588;2023-04-30T15:13:08;4.90;;;2.10;;
73107;SDS011;61559;50.476;15.588;2023-04-30T15:15:40;4.50;;;2.10;;
73107;SDS011;61559;50.476;15.588;2023-04-30T15:18:14;6.20;;;2.10;;
73107;SDS011;61559;50.476;15.588;2023-04-30T15:20:45;3.40;;;1.80;;
73107;SDS011;61559;50.476;15.588;2023-04-30T15:23:16;3.40;;;1.90;;
73107;SDS011;61559;50.476;15.588;2023-04-30T15:25:48;4.30;;;1.90;;
73107;SDS011;61559;50.476;15.588;2023-04-30T15:28:19;3.70;;;2.90;;
73107;SDS011;61559;50.476;15.588;2023-04-30T15:30:52;5.50;;;2.70;;
73107;SDS011;61559;50.476;15.588;2023-04-30T15:33:23;3.70;;;2.80;;
73107;SDS011;61559;50.476;15.588;2023-04-30T15:35:57;3.30;;;2.20;;
73107;SDS011;61559;50.476;15.588;2023-04-30T15:38:28;3.60;;;2.50;;
73107;SDS011;61559;50.476;15.588;2023-04-30T15:40:59;4.00;;;2.00;;
73107;SDS011;61559;50.476;15.588;2023-04-30T15:43:31;5.40;;;2.30;;